sensor_id;sensor_type;location;lat;lon;timestamp;P1;durP1;ratioP1;P2;durP2;ratioP2
74614;SDS011;63121;51.458;-0.110;2023-12-22T00:00:38;7.67;;;1.87;;
74614;SDS011;63121;51.458;-0.110;2023-12-22T00:03:04;7.18;;;1.67;;
74614;SDS011;63121;51.458;-0.110;2023-12-22T00:05:29;9.93;;;1.90;;
74614;SDS011;63121;51.458;-0.110;2023-12-22T00:07:54;8.87;;;1.80;;
74614;SDS011;63121;51.458;-0.110;2023-12-22T00:10:20;8.50;;;1.67;;
74614;SDS011;63121;51.458;-0.110;2023-12-22T00:12:46;7.68;;;1.85;;
74614;SDS011;63121;51.458;-0.110;2023-12-22T00:15:11;9.77;;;1.63;;
74614;SDS011;63121;51.458;-0.110;2023-12-22T00:17:36;10.52;;;1.70;;
74614;SDS011;63121;51.458;-0.110;2023-12-22T00:20:02;8.13;;;1.67;;
74614;SDS011;63121;51.458;-0.110;2023-12-22T00:22:28;8.82;;;1.80;;
74614;SDS011;63121;51.458;-0.110;2023-12-22T00:24:54;6.03;;;1.35;;
74614;SDS011;63121;51.458;-0.110;2023-12-22T00:27:19;7.82;;;1.65;;
74614;SDS011;63121;51.458;-0.110;2023-12-22T00:29:45;8.90;;;1.60;;
74614;SDS011;63121;51.458;-0.110;2023-12-22T00:32:10;6.30;;;1.77;;
74614;SDS011;63121;51.458;-0.110;2023-12-22T00:34:35;7.50;;;1.57;;
74614;SDS011;63121;51.458;-0.110;2023-12-22T00:37:01;9.07;;;2.20;;
74614;SDS011;63121;51.458;-0.110;2023-12-22T00:39:27;10.98;;;1.67;;
74614;SDS011;63121;51.458;-0.110;2023-12-22T00:41:52;6.90;;;1.40;;
74614;SDS011;63121;51.458;-0.110;2023-12-22T00:44:18;9.90;;;1.77;;
74614;SDS011;63121;51.458;-0.110;2023-12-22T00:46:43;13.73;;;1.90;;
74614;SDS011;63121;51.458;-0.110;2023-12-22T00:49:08;6.53;;;1.70;;
74614;SDS011;63121;51.458;-0.110;2023-12-22T00:51:34;6.97;;;1.43;;
74614;SDS011;63121;51.458;-0.110;2023-12-22T00:53:59;11.07;;;2.00;;
74614;SDS011;63121;51.458;-0.110;2023-12-22T00:56:24;8.90;;;1.40;;
74614;SDS011;63121;51.458;-0.110;2023-12-22T00:58:50;8.27;;;1.40;;
74614;SDS011;63121;51.458;-0.110;2023-12-22T01:01:15;6.90;;;1.40;;
74614;SDS011;63121;51.458;-0.110;2023-12-22T01:03:40;9.37;;;1.63;;
74614;SDS011;63121;51.458;-0.110;2023-12-22T01:06:06;6.30;;;1.60;;
74614;SDS011;63121;51.458;-0.110;2023-12-22T01:08:31;8.60;;;1.73;;
74614;SDS011;63121;51.458;-0.110;2023-12-22T01:10:56;9.80;;;1.60;;
74614;SDS011;63121;51.458;-0.110;2023-12-22T01:13:21;8.90;;;2.00;;
74614;SDS011;63121;51.458;-0.110;2023-12-22T01:15:47;9.23;;;1.63;;
74614;SDS011;63121;51.458;-0.110;2023-12-22T01:18:12;8.95;;;1.63;;
74614;SDS011;63121;51.458;-0.110;2023-12-22T01:20:38;7.85;;;1.80;;
74614;SDS011;63121;51.458;-0.110;2023-12-22T01:23:03;8.53;;;1.63;;
74614;SDS011;63121;51.458;-0.110;2023-12-22T01:25:28;10.00;;;1.30;;
74614;SDS011;63121;51.458;-0.110;2023-12-22T01:27:54;8.93;;;1.70;;
74614;SDS011;63121;51.458;-0.110;2023-12-22T01:30:19;7.47;;;1.73;;
74614;SDS011;63121;51.458;-0.110;2023-12-22T01:32:44;10.97;;;1.73;;
74614;SDS011;63121;51.458;-0.110;2023-12-22T01:35:10;6.63;;;1.37;;
74614;SDS011;63121;51.458;-0.110;2023-12-22T01:37:36;7.30;;;1.63;;
74614;SDS011;63121;51.458;-0.110;2023-12-22T01:40:03;9.82;;;1.70;;
74614;SDS011;63121;51.458;-0.110;2023-12-22T01:42:30;8.77;;;1.52;;
74614;SDS011;63121;51.458;-0.110;2023-12-22T01:44:56;6.65;;;1.40;;
74614;SDS011;63121;51.458;-0.110;2023-12-22T01:47:21;7.03;;;1.35;;
74614;SDS011;63121;51.458;-0.110;2023-12-22T01:49:47;7.47;;;1.40;;
74614;SDS011;63121;51.458;-0.110;2023-12-22T01:52:13;8.65;;;2.45;;
74614;SDS011;63121;51.458;-0.110;2023-12-22T01:54:39;6.60;;;1.15;;
74614;SDS011;63121;51.458;-0.110;2023-12-22T01:57:04;6.53;;;1.23;;
74614;SDS011;63121;51.458;-0.110;2023-12-22T01:59:31;6.07;;;1.50;;
74614;SDS011;63121;51.458;-0.110;2023-12-22T02:01:59;5.80;;;1.48;;
74614;SDS011;63121;51.458;-0.110;2023-12-22T02:04:26;6.60;;;1.60;;
74614;SDS011;63121;51.458;-0.110;2023-12-22T02:06:52;5.10;;;1.10;;
74614;SDS011;63121;51.458;-0.110;2023-12-22T02:09:18;4.20;;;1.20;;
74614;SDS011;63121;51.458;-0.110;2023-12-22T02:11:43;6.63;;;1.23;;
74614;SDS011;63121;51.458;-0.110;2023-12-22T02:14:08;7.13;;;1.30;;
74614;SDS011;63121;51.458;-0.110;2023-12-22T02:16:43;7.03;;;1.65;;
74614;SDS011;63121;51.458;-0.110;2023-12-22T02:22:03;6.13;;;1.17;;
74614;SDS011;63121;51.458;-0.110;2023-12-22T02:24:32;6.18;;;1.35;;
74614;SDS011;63121;51.458;-0.110;2023-12-22T02:29:52;6.47;;;1.10;;
74614;SDS011;63121;51.458;-0.110;2023-12-22T02:32:23;8.35;;;1.85;;
74614;SDS011;63121;51.458;-0.110;2023-12-22T02:34:55;5.38;;;1.13;;
74614;SDS011;63121;51.458;-0.110;2023-12-22T02:37:22;5.43;;;1.40;;
74614;SDS011;63121;51.458;-0.110;2023-12-22T02:39:49;5.05;;;1.15;;
74614;SDS011;63121;51.458;-0.110;2023-12-22T02:42:16;6.82;;;1.42;;
74614;SDS011;63121;51.458;-0.110;2023-12-22T02:44:42;6.60;;;1.23;;
74614;SDS011;63121;51.458;-0.110;2023-12-22T02:47:08;4.40;;;1.20;;
74614;SDS011;63121;51.458;-0.110;2023-12-22T02:49:33;5.37;;;1.10;;
74614;SDS011;63121;51.458;-0.110;2023-12-22T02:51:58;6.77;;;1.50;;
74614;SDS011;63121;51.458;-0.110;2023-12-22T02:54:23;7.63;;;1.40;;
74614;SDS011;63121;51.458;-0.110;2023-12-22T02:56:49;3.72;;;0.90;;
74614;SDS011;63121;51.458;-0.110;2023-12-22T02:59:14;6.18;;;0.93;;
74614;SDS011;63121;51.458;-0.110;2023-12-22T03:01:40;4.57;;;1.25;;
74614;SDS011;63121;51.458;-0.110;2023-12-22T03:04:05;5.87;;;1.40;;
74614;SDS011;63121;51.458;-0.110;2023-12-22T03:06:30;5.97;;;1.27;;
74614;SDS011;63121;51.458;-0.110;2023-12-22T03:08:55;5.53;;;1.20;;
74614;SDS011;63121;51.458;-0.110;2023-12-22T03:11:21;6.57;;;1.47;;
74614;SDS011;63121;51.458;-0.110;2023-12-22T03:13:46;3.97;;;1.10;;
74614;SDS011;63121;51.458;-0.110;2023-12-22T03:16:11;6.27;;;1.20;;
74614;SDS011;63121;51.458;-0.110;2023-12-22T03:18:37;6.20;;;1.30;;
74614;SDS011;63121;51.458;-0.110;2023-12-22T03:23:29;5.40;;;0.87;;
74614;SDS011;63121;51.458;-0.110;2023-12-22T03:25:54;4.50;;;1.00;;
74614;SDS011;63121;51.458;-0.110;2023-12-22T03:28:20;4.63;;;1.00;;
74614;SDS011;63121;51.458;-0.110;2023-12-22T03:30:45;4.27;;;1.23;;
74614;SDS011;63121;51.458;-0.110;2023-12-22T03:33:10;5.30;;;1.25;;
74614;SDS011;63121;51.458;-0.110;2023-12-22T03:35:36;3.93;;;1.20;;
74614;SDS011;63121;51.458;-0.110;2023-12-22T03:38:01;4.13;;;0.97;;
74614;SDS011;63121;51.458;-0.110;2023-12-22T03:43:48;4.68;;;1.10;;
74614;SDS011;63121;51.458;-0.110;2023-12-22T03:46:14;4.85;;;1.20;;
74614;SDS011;63121;51.458;-0.110;2023-12-22T03:48:39;7.00;;;1.67;;
74614;SDS011;63121;51.458;-0.110;2023-12-22T03:51:04;6.87;;;1.10;;
74614;SDS011;63121;51.458;-0.110;2023-12-22T03:53:30;3.92;;;0.93;;
74614;SDS011;63121;51.458;-0.110;2023-12-22T03:55:55;3.83;;;1.00;;
74614;SDS011;63121;51.458;-0.110;2023-12-22T03:58:21;5.47;;;1.13;;
74614;SDS011;63121;51.458;-0.110;2023-12-22T04:00:46;4.53;;;1.00;;
74614;SDS011;63121;51.458;-0.110;2023-12-22T04:03:12;7.63;;;1.42;;
74614;SDS011;63121;51.458;-0.110;2023-12-22T04:05:37;4.03;;;0.90;;
74614;SDS011;63121;51.458;-0.110;2023-12-22T04:08:03;2.80;;;0.90;;
74614;SDS011;63121;51.458;-0.110;2023-12-22T04:10:29;4.45;;;1.05;;
74614;SDS011;63121;51.458;-0.110;2023-12-22T04:12:54;4.83;;;0.90;;
74614;SDS011;63121;51.458;-0.110;2023-12-22T04:15:19;4.43;;;1.03;;
74614;SDS011;63121;51.458;-0.110;2023-12-22T04:17:45;4.57;;;1.10;;
74614;SDS011;63121;51.458;-0.110;2023-12-22T04:20:10;6.07;;;1.02;;
74614;SDS011;63121;51.458;-0.110;2023-12-22T04:22:36;3.63;;;0.90;;
74614;SDS011;63121;51.458;-0.110;2023-12-22T04:25:01;3.90;;;0.90;;
74614;SDS011;63121;51.458;-0.110;2023-12-22T04:27:26;2.93;;;0.63;;
74614;SDS011;63121;51.458;-0.110;2023-12-22T04:29:51;3.43;;;1.00;;
74614;SDS011;63121;51.458;-0.110;2023-12-22T04:32:17;4.37;;;0.90;;
74614;SDS011;63121;51.458;-0.110;2023-12-22T04:34:42;3.23;;;0.77;;
74614;SDS011;63121;51.458;-0.110;2023-12-22T04:37:07;3.27;;;0.80;;
74614;SDS011;63121;51.458;-0.110;2023-12-22T04:39:33;2.37;;;0.70;;
74614;SDS011;63121;51.458;-0.110;2023-12-22T04:41:58;2.20;;;0.80;;
74614;SDS011;63121;51.458;-0.110;2023-12-22T04:44:23;3.45;;;0.90;;
74614;SDS011;63121;51.458;-0.110;2023-12-22T04:46:49;3.53;;;0.85;;
74614;SDS011;63121;51.458;-0.110;2023-12-22T04:49:15;3.03;;;0.75;;
74614;SDS011;63121;51.458;-0.110;2023-12-22T04:51:40;4.45;;;1.05;;
74614;SDS011;63121;51.458;-0.110;2023-12-22T04:54:05;2.27;;;0.80;;
74614;SDS011;63121;51.458;-0.110;2023-12-22T04:56:31;3.20;;;0.90;;
74614;SDS011;63121;51.458;-0.110;2023-12-22T04:58:57;5.15;;;0.88;;
74614;SDS011;63121;51.458;-0.110;2023-12-22T05:01:22;2.85;;;0.90;;
74614;SDS011;63121;51.458;-0.110;2023-12-22T05:03:48;2.43;;;0.80;;
74614;SDS011;63121;51.458;-0.110;2023-12-22T05:06:13;3.70;;;0.80;;
74614;SDS011;63121;51.458;-0.110;2023-12-22T05:08:38;2.00;;;0.60;;
74614;SDS011;63121;51.458;-0.110;2023-12-22T05:11:04;2.70;;;0.70;;
74614;SDS011;63121;51.458;-0.110;2023-12-22T05:13:30;2.38;;;0.70;;
74614;SDS011;63121;51.458;-0.110;2023-12-22T05:15:55;3.35;;;0.80;;
74614;SDS011;63121;51.458;-0.110;2023-12-22T05:18:20;3.15;;;0.70;;
74614;SDS011;63121;51.458;-0.110;2023-12-22T05:20:46;1.00;;;0.60;;
74614;SDS011;63121;51.458;-0.110;2023-12-22T05:23:11;3.25;;;1.02;;
74614;SDS011;63121;51.458;-0.110;2023-12-22T05:25:37;2.05;;;0.68;;
74614;SDS011;63121;51.458;-0.110;2023-12-22T05:28:02;1.77;;;0.52;;
74614;SDS011;63121;51.458;-0.110;2023-12-22T05:30:28;3.17;;;0.70;;
74614;SDS011;63121;51.458;-0.110;2023-12-22T05:32:53;3.17;;;0.70;;
74614;SDS011;63121;51.458;-0.110;2023-12-22T05:35:19;2.47;;;0.50;;
74614;SDS011;63121;51.458;-0.110;2023-12-22T05:37:45;2.50;;;0.73;;
74614;SDS011;63121;51.458;-0.110;2023-12-22T05:40:10;2.10;;;0.60;;
74614;SDS011;63121;51.458;-0.110;2023-12-22T05:42:36;1.88;;;0.57;;
74614;SDS011;63121;51.458;-0.110;2023-12-22T05:45:02;1.88;;;0.73;;
74614;SDS011;63121;51.458;-0.110;2023-12-22T05:47:28;1.90;;;0.60;;
74614;SDS011;63121;51.458;-0.110;2023-12-22T05:49:53;1.83;;;0.60;;
74614;SDS011;63121;51.458;-0.110;2023-12-22T05:52:19;2.87;;;0.80;;
74614;SDS011;63121;51.458;-0.110;2023-12-22T05:54:44;1.00;;;0.50;;
74614;SDS011;63121;51.458;-0.110;2023-12-22T05:57:09;3.10;;;0.90;;
74614;SDS011;63121;51.458;-0.110;2023-12-22T05:59:35;1.90;;;0.47;;
74614;SDS011;63121;51.458;-0.110;2023-12-22T06:02:00;3.00;;;0.43;;
74614;SDS011;63121;51.458;-0.110;2023-12-22T06:04:26;1.27;;;0.40;;
74614;SDS011;63121;51.458;-0.110;2023-12-22T06:06:51;1.38;;;0.63;;
74614;SDS011;63121;51.458;-0.110;2023-12-22T06:09:17;1.50;;;0.55;;
74614;SDS011;63121;51.458;-0.110;2023-12-22T06:11:45;4.15;;;0.80;;
74614;SDS011;63121;51.458;-0.110;2023-12-22T06:14:10;1.85;;;0.55;;
74614;SDS011;63121;51.458;-0.110;2023-12-22T06:16:36;2.00;;;0.40;;
74614;SDS011;63121;51.458;-0.110;2023-12-22T06:19:01;2.23;;;0.43;;
74614;SDS011;63121;51.458;-0.110;2023-12-22T06:21:26;0.63;;;0.50;;
74614;SDS011;63121;51.458;-0.110;2023-12-22T06:23:52;4.03;;;0.70;;
74614;SDS011;63121;51.458;-0.110;2023-12-22T06:26:17;1.27;;;0.52;;
74614;SDS011;63121;51.458;-0.110;2023-12-22T06:28:42;2.90;;;0.70;;
74614;SDS011;63121;51.458;-0.110;2023-12-22T06:31:10;0.75;;;0.35;;
74614;SDS011;63121;51.458;-0.110;2023-12-22T06:33:45;0.98;;;0.40;;
74614;SDS011;63121;51.458;-0.110;2023-12-22T06:36:18;3.13;;;0.55;;
74614;SDS011;63121;51.458;-0.110;2023-12-22T06:38:55;1.90;;;0.50;;
74614;SDS011;63121;51.458;-0.110;2023-12-22T06:41:28;2.78;;;0.38;;
74614;SDS011;63121;51.458;-0.110;2023-12-22T06:43:55;1.45;;;0.70;;
74614;SDS011;63121;51.458;-0.110;2023-12-22T06:46:22;1.55;;;0.52;;
74614;SDS011;63121;51.458;-0.110;2023-12-22T06:48:51;0.80;;;0.38;;
74614;SDS011;63121;51.458;-0.110;2023-12-22T06:53:46;1.75;;;0.40;;
74614;SDS011;63121;51.458;-0.110;2023-12-22T06:56:31;2.80;;;0.90;;
74614;SDS011;63121;51.458;-0.110;2023-12-22T06:58:58;1.58;;;0.50;;
74614;SDS011;63121;51.458;-0.110;2023-12-22T07:01:28;2.45;;;0.57;;
74614;SDS011;63121;51.458;-0.110;2023-12-22T07:03:57;0.93;;;0.40;;
74614;SDS011;63121;51.458;-0.110;2023-12-22T07:06:25;1.40;;;0.57;;
74614;SDS011;63121;51.458;-0.110;2023-12-22T07:11:24;0.75;;;0.40;;
74614;SDS011;63121;51.458;-0.110;2023-12-22T07:13:49;1.88;;;0.55;;
74614;SDS011;63121;51.458;-0.110;2023-12-22T07:16:15;0.97;;;0.30;;
74614;SDS011;63121;51.458;-0.110;2023-12-22T07:18:40;0.57;;;0.30;;
74614;SDS011;63121;51.458;-0.110;2023-12-22T07:21:06;0.75;;;0.40;;
74614;SDS011;63121;51.458;-0.110;2023-12-22T07:23:32;2.08;;;0.68;;
74614;SDS011;63121;51.458;-0.110;2023-12-22T07:25:57;1.55;;;0.43;;
74614;SDS011;63121;51.458;-0.110;2023-12-22T07:28:23;0.90;;;0.30;;
74614;SDS011;63121;51.458;-0.110;2023-12-22T07:30:48;1.50;;;0.40;;
74614;SDS011;63121;51.458;-0.110;2023-12-22T07:33:14;1.30;;;0.35;;
74614;SDS011;63121;51.458;-0.110;2023-12-22T07:35:39;1.25;;;0.40;;
74614;SDS011;63121;51.458;-0.110;2023-12-22T07:38:04;1.00;;;0.40;;
74614;SDS011;63121;51.458;-0.110;2023-12-22T07:40:30;1.42;;;0.30;;
74614;SDS011;63121;51.458;-0.110;2023-12-22T07:42:55;1.00;;;0.47;;
74614;SDS011;63121;51.458;-0.110;2023-12-22T07:45:21;0.80;;;0.35;;
74614;SDS011;63121;51.458;-0.110;2023-12-22T07:47:47;2.43;;;0.40;;
74614;SDS011;63121;51.458;-0.110;2023-12-22T07:50:12;1.50;;;0.50;;
74614;SDS011;63121;51.458;-0.110;2023-12-22T07:52:37;1.53;;;0.50;;
74614;SDS011;63121;51.458;-0.110;2023-12-22T07:55:07;1.27;;;0.38;;
74614;SDS011;63121;51.458;-0.110;2023-12-22T08:00:02;0.70;;;0.40;;
74614;SDS011;63121;51.458;-0.110;2023-12-22T08:02:28;2.35;;;0.40;;
74614;SDS011;63121;51.458;-0.110;2023-12-22T08:04:54;1.20;;;0.52;;
74614;SDS011;63121;51.458;-0.110;2023-12-22T08:07:19;0.57;;;0.35;;
74614;SDS011;63121;51.458;-0.110;2023-12-22T08:09:44;0.20;;;0.20;;
74614;SDS011;63121;51.458;-0.110;2023-12-22T08:12:10;0.47;;;0.30;;
74614;SDS011;63121;51.458;-0.110;2023-12-22T08:14:35;2.17;;;0.40;;
74614;SDS011;63121;51.458;-0.110;2023-12-22T08:17:01;1.83;;;0.53;;
74614;SDS011;63121;51.458;-0.110;2023-12-22T08:19:26;0.77;;;0.40;;
74614;SDS011;63121;51.458;-0.110;2023-12-22T08:21:54;0.98;;;0.30;;
74614;SDS011;63121;51.458;-0.110;2023-12-22T08:24:20;1.13;;;0.30;;
74614;SDS011;63121;51.458;-0.110;2023-12-22T08:26:46;2.88;;;0.63;;
74614;SDS011;63121;51.458;-0.110;2023-12-22T08:29:11;1.23;;;0.32;;
74614;SDS011;63121;51.458;-0.110;2023-12-22T08:31:37;1.47;;;0.47;;
74614;SDS011;63121;51.458;-0.110;2023-12-22T08:34:02;1.13;;;0.28;;
74614;SDS011;63121;51.458;-0.110;2023-12-22T08:36:27;0.50;;;0.30;;
74614;SDS011;63121;51.458;-0.110;2023-12-22T08:38:53;1.40;;;0.20;;
74614;SDS011;63121;51.458;-0.110;2023-12-22T08:41:18;1.08;;;0.43;;
74614;SDS011;63121;51.458;-0.110;2023-12-22T08:43:43;1.55;;;0.38;;
74614;SDS011;63121;51.458;-0.110;2023-12-22T08:46:09;1.10;;;0.40;;
74614;SDS011;63121;51.458;-0.110;2023-12-22T08:48:37;0.65;;;0.28;;
74614;SDS011;63121;51.458;-0.110;2023-12-22T08:51:03;2.95;;;0.50;;
74614;SDS011;63121;51.458;-0.110;2023-12-22T08:53:29;1.10;;;0.40;;
74614;SDS011;63121;51.458;-0.110;2023-12-22T08:55:58;1.75;;;0.32;;
74614;SDS011;63121;51.458;-0.110;2023-12-22T08:58:24;1.52;;;0.30;;
74614;SDS011;63121;51.458;-0.110;2023-12-22T09:00:50;0.73;;;0.28;;
74614;SDS011;63121;51.458;-0.110;2023-12-22T09:03:16;0.45;;;0.20;;
74614;SDS011;63121;51.458;-0.110;2023-12-22T09:05:41;0.37;;;0.20;;
74614;SDS011;63121;51.458;-0.110;2023-12-22T09:08:07;0.30;;;0.30;;
74614;SDS011;63121;51.458;-0.110;2023-12-22T09:10:32;1.70;;;0.67;;
74614;SDS011;63121;51.458;-0.110;2023-12-22T09:12:57;1.90;;;0.55;;
74614;SDS011;63121;51.458;-0.110;2023-12-22T09:15:23;0.52;;;0.20;;
74614;SDS011;63121;51.458;-0.110;2023-12-22T09:17:48;1.23;;;0.50;;
74614;SDS011;63121;51.458;-0.110;2023-12-22T09:20:15;1.00;;;0.52;;
74614;SDS011;63121;51.458;-0.110;2023-12-22T09:22:40;1.27;;;0.52;;
74614;SDS011;63121;51.458;-0.110;2023-12-22T09:25:05;1.87;;;0.40;;
74614;SDS011;63121;51.458;-0.110;2023-12-22T09:27:31;3.15;;;0.60;;
74614;SDS011;63121;51.458;-0.110;2023-12-22T09:29:57;2.05;;;0.47;;
74614;SDS011;63121;51.458;-0.110;2023-12-22T09:32:22;1.00;;;0.38;;
74614;SDS011;63121;51.458;-0.110;2023-12-22T09:34:47;0.83;;;0.40;;
74614;SDS011;63121;51.458;-0.110;2023-12-22T09:37:13;0.85;;;0.47;;
74614;SDS011;63121;51.458;-0.110;2023-12-22T09:39:39;1.55;;;0.65;;
74614;SDS011;63121;51.458;-0.110;2023-12-22T09:42:05;2.43;;;0.70;;
74614;SDS011;63121;51.458;-0.110;2023-12-22T09:44:31;0.85;;;0.28;;
74614;SDS011;63121;51.458;-0.110;2023-12-22T09:47:00;2.25;;;0.50;;
74614;SDS011;63121;51.458;-0.110;2023-12-22T09:49:29;1.42;;;0.43;;
74614;SDS011;63121;51.458;-0.110;2023-12-22T09:51:54;1.27;;;0.43;;
74614;SDS011;63121;51.458;-0.110;2023-12-22T09:54:22;1.35;;;0.40;;
74614;SDS011;63121;51.458;-0.110;2023-12-22T09:56:48;1.83;;;0.57;;
74614;SDS011;63121;51.458;-0.110;2023-12-22T09:59:15;1.17;;;0.35;;
74614;SDS011;63121;51.458;-0.110;2023-12-22T10:01:42;1.65;;;0.43;;
74614;SDS011;63121;51.458;-0.110;2023-12-22T10:04:12;2.67;;;0.60;;
74614;SDS011;63121;51.458;-0.110;2023-12-22T10:06:38;2.83;;;0.50;;
74614;SDS011;63121;51.458;-0.110;2023-12-22T10:09:04;0.55;;;0.40;;
74614;SDS011;63121;51.458;-0.110;2023-12-22T10:11:32;1.40;;;0.30;;
74614;SDS011;63121;51.458;-0.110;2023-12-22T10:13:59;1.30;;;0.30;;
74614;SDS011;63121;51.458;-0.110;2023-12-22T10:16:26;1.08;;;0.47;;
74614;SDS011;63121;51.458;-0.110;2023-12-22T10:18:52;1.05;;;0.38;;
74614;SDS011;63121;51.458;-0.110;2023-12-22T10:21:18;1.85;;;0.45;;
74614;SDS011;63121;51.458;-0.110;2023-12-22T10:23:44;2.70;;;0.60;;
74614;SDS011;63121;51.458;-0.110;2023-12-22T10:26:12;2.33;;;0.57;;
74614;SDS011;63121;51.458;-0.110;2023-12-22T10:28:37;3.70;;;0.95;;
74614;SDS011;63121;51.458;-0.110;2023-12-22T10:31:03;2.40;;;0.70;;
74614;SDS011;63121;51.458;-0.110;2023-12-22T10:33:32;2.28;;;0.50;;
74614;SDS011;63121;51.458;-0.110;2023-12-22T10:35:58;1.30;;;0.47;;
74614;SDS011;63121;51.458;-0.110;2023-12-22T10:38:25;1.70;;;0.45;;
74614;SDS011;63121;51.458;-0.110;2023-12-22T10:40:50;1.58;;;0.35;;
74614;SDS011;63121;51.458;-0.110;2023-12-22T10:43:16;2.65;;;0.57;;
74614;SDS011;63121;51.458;-0.110;2023-12-22T10:45:42;1.17;;;0.40;;
74614;SDS011;63121;51.458;-0.110;2023-12-22T10:48:08;2.08;;;0.40;;
74614;SDS011;63121;51.458;-0.110;2023-12-22T10:50:33;2.00;;;0.50;;
74614;SDS011;63121;51.458;-0.110;2023-12-22T10:52:58;1.27;;;0.20;;
74614;SDS011;63121;51.458;-0.110;2023-12-22T10:55:25;3.65;;;0.55;;
74614;SDS011;63121;51.458;-0.110;2023-12-22T10:57:50;0.52;;;0.47;;
74614;SDS011;63121;51.458;-0.110;2023-12-22T11:00:16;1.98;;;0.50;;
74614;SDS011;63121;51.458;-0.110;2023-12-22T11:02:42;1.92;;;0.50;;
74614;SDS011;63121;51.458;-0.110;2023-12-22T11:05:12;2.78;;;0.80;;
74614;SDS011;63121;51.458;-0.110;2023-12-22T11:07:41;4.50;;;0.40;;
74614;SDS011;63121;51.458;-0.110;2023-12-22T11:10:13;2.80;;;0.52;;
74614;SDS011;63121;51.458;-0.110;2023-12-22T11:12:43;2.25;;;0.60;;
74614;SDS011;63121;51.458;-0.110;2023-12-22T11:15:09;1.40;;;0.30;;
74614;SDS011;63121;51.458;-0.110;2023-12-22T11:17:39;1.60;;;0.50;;
74614;SDS011;63121;51.458;-0.110;2023-12-22T11:20:08;3.25;;;0.60;;
74614;SDS011;63121;51.458;-0.110;2023-12-22T11:22:35;2.97;;;0.60;;
74614;SDS011;63121;51.458;-0.110;2023-12-22T11:25:02;3.03;;;0.45;;
74614;SDS011;63121;51.458;-0.110;2023-12-22T11:27:27;1.08;;;0.50;;
74614;SDS011;63121;51.458;-0.110;2023-12-22T11:29:54;4.93;;;0.82;;
74614;SDS011;63121;51.458;-0.110;2023-12-22T11:32:20;2.55;;;0.60;;
74614;SDS011;63121;51.458;-0.110;2023-12-22T11:34:46;1.35;;;0.35;;
74614;SDS011;63121;51.458;-0.110;2023-12-22T11:37:15;0.98;;;0.32;;
74614;SDS011;63121;51.458;-0.110;2023-12-22T11:39:41;1.67;;;0.55;;
74614;SDS011;63121;51.458;-0.110;2023-12-22T11:42:21;1.80;;;0.80;;
74614;SDS011;63121;51.458;-0.110;2023-12-22T11:44:50;1.70;;;0.57;;
74614;SDS011;63121;51.458;-0.110;2023-12-22T11:47:17;1.95;;;0.50;;
74614;SDS011;63121;51.458;-0.110;2023-12-22T11:49:48;2.72;;;0.50;;
74614;SDS011;63121;51.458;-0.110;2023-12-22T11:52:16;1.17;;;0.45;;
74614;SDS011;63121;51.458;-0.110;2023-12-22T11:54:46;0.98;;;0.47;;
74614;SDS011;63121;51.458;-0.110;2023-12-22T11:59:56;2.88;;;0.70;;
74614;SDS011;63121;51.458;-0.110;2023-12-22T12:02:22;1.48;;;0.52;;
74614;SDS011;63121;51.458;-0.110;2023-12-22T12:04:48;1.92;;;0.63;;
74614;SDS011;63121;51.458;-0.110;2023-12-22T12:10:13;1.85;;;0.68;;
74614;SDS011;63121;51.458;-0.110;2023-12-22T12:13:10;2.13;;;0.63;;
74614;SDS011;63121;51.458;-0.110;2023-12-22T12:15:36;2.58;;;0.60;;
74614;SDS011;63121;51.458;-0.110;2023-12-22T12:18:03;1.05;;;0.40;;
74614;SDS011;63121;51.458;-0.110;2023-12-22T12:20:32;2.85;;;0.70;;
74614;SDS011;63121;51.458;-0.110;2023-12-22T12:22:58;1.60;;;0.52;;
74614;SDS011;63121;51.458;-0.110;2023-12-22T12:25:23;3.10;;;0.55;;
74614;SDS011;63121;51.458;-0.110;2023-12-22T12:28:05;1.40;;;0.52;;
74614;SDS011;63121;51.458;-0.110;2023-12-22T12:30:31;2.95;;;0.55;;
74614;SDS011;63121;51.458;-0.110;2023-12-22T12:33:10;1.92;;;0.60;;
74614;SDS011;63121;51.458;-0.110;2023-12-22T12:35:40;1.60;;;0.40;;
74614;SDS011;63121;51.458;-0.110;2023-12-22T12:38:06;4.93;;;0.47;;
74614;SDS011;63121;51.458;-0.110;2023-12-22T12:40:31;4.20;;;0.60;;
74614;SDS011;63121;51.458;-0.110;2023-12-22T12:43:00;6.00;;;1.00;;
74614;SDS011;63121;51.458;-0.110;2023-12-22T12:45:26;3.00;;;0.63;;
74614;SDS011;63121;51.458;-0.110;2023-12-22T12:47:55;4.03;;;0.70;;
74614;SDS011;63121;51.458;-0.110;2023-12-22T12:50:24;4.45;;;0.95;;
74614;SDS011;63121;51.458;-0.110;2023-12-22T12:52:53;3.65;;;0.63;;
74614;SDS011;63121;51.458;-0.110;2023-12-22T12:55:20;2.85;;;0.60;;
74614;SDS011;63121;51.458;-0.110;2023-12-22T12:57:49;1.58;;;0.65;;
74614;SDS011;63121;51.458;-0.110;2023-12-22T13:00:25;2.20;;;0.65;;
74614;SDS011;63121;51.458;-0.110;2023-12-22T13:03:04;1.60;;;0.60;;
74614;SDS011;63121;51.458;-0.110;2023-12-22T13:05:31;2.20;;;0.57;;
74614;SDS011;63121;51.458;-0.110;2023-12-22T13:08:06;1.77;;;0.60;;
74614;SDS011;63121;51.458;-0.110;2023-12-22T13:10:32;0.85;;;0.52;;
74614;SDS011;63121;51.458;-0.110;2023-12-22T13:12:58;4.10;;;0.70;;
74614;SDS011;63121;51.458;-0.110;2023-12-22T13:15:23;3.42;;;0.50;;
74614;SDS011;63121;51.458;-0.110;2023-12-22T13:17:49;3.75;;;0.60;;
74614;SDS011;63121;51.458;-0.110;2023-12-22T13:20:15;3.80;;;0.80;;
74614;SDS011;63121;51.458;-0.110;2023-12-22T13:22:40;2.03;;;0.52;;
74614;SDS011;63121;51.458;-0.110;2023-12-22T13:25:06;2.45;;;0.68;;
74614;SDS011;63121;51.458;-0.110;2023-12-22T13:27:43;1.80;;;0.55;;
74614;SDS011;63121;51.458;-0.110;2023-12-22T13:30:12;2.17;;;0.70;;
74614;SDS011;63121;51.458;-0.110;2023-12-22T13:32:38;1.25;;;0.50;;
74614;SDS011;63121;51.458;-0.110;2023-12-22T13:35:04;1.98;;;0.70;;
74614;SDS011;63121;51.458;-0.110;2023-12-22T13:37:30;2.10;;;0.70;;
74614;SDS011;63121;51.458;-0.110;2023-12-22T13:39:56;1.33;;;0.50;;
74614;SDS011;63121;51.458;-0.110;2023-12-22T13:42:22;3.00;;;0.90;;
74614;SDS011;63121;51.458;-0.110;2023-12-22T13:44:49;2.10;;;0.60;;
74614;SDS011;63121;51.458;-0.110;2023-12-22T13:47:15;1.98;;;0.50;;
74614;SDS011;63121;51.458;-0.110;2023-12-22T13:49:41;2.67;;;0.50;;
74614;SDS011;63121;51.458;-0.110;2023-12-22T13:52:08;3.53;;;0.63;;
74614;SDS011;63121;51.458;-0.110;2023-12-22T13:54:48;4.63;;;0.90;;
74614;SDS011;63121;51.458;-0.110;2023-12-22T13:57:20;1.55;;;0.38;;
74614;SDS011;63121;51.458;-0.110;2023-12-22T13:59:49;2.63;;;0.75;;
74614;SDS011;63121;51.458;-0.110;2023-12-22T14:02:14;2.60;;;0.68;;
74614;SDS011;63121;51.458;-0.110;2023-12-22T14:04:40;2.22;;;0.50;;
74614;SDS011;63121;51.458;-0.110;2023-12-22T14:07:06;2.85;;;0.90;;
74614;SDS011;63121;51.458;-0.110;2023-12-22T14:09:31;4.00;;;0.90;;
74614;SDS011;63121;51.458;-0.110;2023-12-22T14:11:58;2.75;;;0.60;;
74614;SDS011;63121;51.458;-0.110;2023-12-22T14:14:24;3.28;;;0.70;;
74614;SDS011;63121;51.458;-0.110;2023-12-22T14:16:49;4.13;;;0.73;;
74614;SDS011;63121;51.458;-0.110;2023-12-22T14:19:14;0.87;;;0.47;;
74614;SDS011;63121;51.458;-0.110;2023-12-22T14:21:40;2.37;;;0.63;;
74614;SDS011;63121;51.458;-0.110;2023-12-22T14:24:05;2.17;;;0.52;;
74614;SDS011;63121;51.458;-0.110;2023-12-22T14:26:31;3.63;;;0.98;;
74614;SDS011;63121;51.458;-0.110;2023-12-22T14:28:56;4.23;;;0.90;;
74614;SDS011;63121;51.458;-0.110;2023-12-22T14:31:22;3.43;;;0.57;;
74614;SDS011;63121;51.458;-0.110;2023-12-22T14:33:47;2.50;;;0.77;;
74614;SDS011;63121;51.458;-0.110;2023-12-22T14:36:12;4.90;;;1.00;;
74614;SDS011;63121;51.458;-0.110;2023-12-22T14:38:38;0.95;;;0.43;;
74614;SDS011;63121;51.458;-0.110;2023-12-22T14:41:03;3.13;;;0.77;;
74614;SDS011;63121;51.458;-0.110;2023-12-22T14:43:29;4.40;;;0.70;;
74614;SDS011;63121;51.458;-0.110;2023-12-22T14:45:54;3.53;;;0.80;;
74614;SDS011;63121;51.458;-0.110;2023-12-22T14:48:19;3.78;;;0.88;;
74614;SDS011;63121;51.458;-0.110;2023-12-22T14:50:45;2.27;;;0.73;;
74614;SDS011;63121;51.458;-0.110;2023-12-22T14:53:10;3.33;;;0.70;;